Airport ICAO


20:24 UTC

12°C


An affordable passengers' Moving Map for your aircraft. Made for the iPad and the iPhone
More information here

LFMC Le Cannet


Le Luc FRANCE   


METAR LFMC 092000Z AUTO 28022KT 9999 ////// 12/02 Q1018 0h24min





NOTAMS

OPEN